sensor_id;sensor_type;location;lat;lon;timestamp;temperature;humidity
17080;DHT22;8655;57.106;-2.088;2022-11-20T00:00:00;16.30;63.90
17080;DHT22;8655;57.106;-2.088;2022-11-20T00:02:26;16.30;63.90
17080;DHT22;8655;57.106;-2.088;2022-11-20T00:04:51;16.30;63.90
17080;DHT22;8655;57.106;-2.088;2022-11-20T00:07:17;16.30;63.90
17080;DHT22;8655;57.106;-2.088;2022-11-20T00:09:42;16.30;63.90
17080;DHT22;8655;57.106;-2.088;2022-11-20T00:12:08;16.30;63.90
17080;DHT22;8655;57.106;-2.088;2022-11-20T00:14:34;16.30;63.90
17080;DHT22;8655;57.106;-2.088;2022-11-20T00:17:00;16.30;63.90
17080;DHT22;8655;57.106;-2.088;2022-11-20T00:19:25;16.30;63.80
17080;DHT22;8655;57.106;-2.088;2022-11-20T00:21:51;16.30;63.90
17080;DHT22;8655;57.106;-2.088;2022-11-20T00:24:19;16.30;63.90
17080;DHT22;8655;57.106;-2.088;2022-11-20T00:26:44;16.20;63.80
17080;DHT22;8655;57.106;-2.088;2022-11-20T00:29:10;16.20;63.80
17080;DHT22;8655;57.106;-2.088;2022-11-20T00:31:36;16.20;63.80
17080;DHT22;8655;57.106;-2.088;2022-11-20T00:34:02;16.20;63.80
17080;DHT22;8655;57.106;-2.088;2022-11-20T00:36:31;16.20;63.80
17080;DHT22;8655;57.106;-2.088;2022-11-20T00:38:57;16.20;63.80
17080;DHT22;8655;57.106;-2.088;2022-11-20T00:41:24;16.20;63.70
17080;DHT22;8655;57.106;-2.088;2022-11-20T00:43:52;16.20;63.70
17080;DHT22;8655;57.106;-2.088;2022-11-20T00:46:20;16.20;63.70
17080;DHT22;8655;57.106;-2.088;2022-11-20T00:48:46;16.20;63.70
17080;DHT22;8655;57.106;-2.088;2022-11-20T00:51:17;16.20;63.70
17080;DHT22;8655;57.106;-2.088;2022-11-20T00:53:43;16.20;63.70
17080;DHT22;8655;57.106;-2.088;2022-11-20T00:56:17;16.20;63.70
17080;DHT22;8655;57.106;-2.088;2022-11-20T00:58:44;16.10;63.60
17080;DHT22;8655;57.106;-2.088;2022-11-20T01:01:13;16.10;63.60
17080;DHT22;8655;57.106;-2.088;2022-11-20T01:03:42;16.20;63.70
17080;DHT22;8655;57.106;-2.088;2022-11-20T01:06:20;16.10;63.60
17080;DHT22;8655;57.106;-2.088;2022-11-20T01:08:47;16.10;63.60
17080;DHT22;8655;57.106;-2.088;2022-11-20T01:11:19;16.10;64.30
17080;DHT22;8655;57.106;-2.088;2022-11-20T01:13:46;16.10;63.60
17080;DHT22;8655;57.106;-2.088;2022-11-20T01:16:33;16.10;63.60
17080;DHT22;8655;57.106;-2.088;2022-11-20T01:18:59;16.10;63.60
17080;DHT22;8655;57.106;-2.088;2022-11-20T01:21:34;16.10;63.60
17080;DHT22;8655;57.106;-2.088;2022-11-20T01:24:02;16.10;63.60
17080;DHT22;8655;57.106;-2.088;2022-11-20T01:26:31;16.10;63.60
17080;DHT22;8655;57.106;-2.088;2022-11-20T01:28:58;16.10;63.60
17080;DHT22;8655;57.106;-2.088;2022-11-20T01:31:29;16.00;63.50
17080;DHT22;8655;57.106;-2.088;2022-11-20T01:34:05;16.10;63.60
17080;DHT22;8655;57.106;-2.088;2022-11-20T01:36:32;16.10;63.60
17080;DHT22;8655;57.106;-2.088;2022-11-20T01:39:32;16.10;63.60
17080;DHT22;8655;57.106;-2.088;2022-11-20T01:41:53;16.00;63.50
17080;DHT22;8655;57.106;-2.088;2022-11-20T01:44:48;16.00;63.50
17080;DHT22;8655;57.106;-2.088;2022-11-20T01:47:20;16.00;63.50
17080;DHT22;8655;57.106;-2.088;2022-11-20T01:49:54;16.00;63.50
17080;DHT22;8655;57.106;-2.088;2022-11-20T01:52:25;16.00;63.40
17080;DHT22;8655;57.106;-2.088;2022-11-20T01:55:11;16.00;63.40
17080;DHT22;8655;57.106;-2.088;2022-11-20T01:57:38;16.00;63.40
17080;DHT22;8655;57.106;-2.088;2022-11-20T02:00:10;16.00;63.40
17080;DHT22;8655;57.106;-2.088;2022-11-20T02:02:39;16.00;63.40
17080;DHT22;8655;57.106;-2.088;2022-11-20T02:05:31;16.00;63.50
17080;DHT22;8655;57.106;-2.088;2022-11-20T02:07:59;16.00;63.40
17080;DHT22;8655;57.106;-2.088;2022-11-20T02:10:26;16.00;63.40
17080;DHT22;8655;57.106;-2.088;2022-11-20T02:12:52;16.00;63.40
17080;DHT22;8655;57.106;-2.088;2022-11-20T02:15:37;16.00;63.40
17080;DHT22;8655;57.106;-2.088;2022-11-20T02:18:03;15.90;63.30
17080;DHT22;8655;57.106;-2.088;2022-11-20T02:20:30;15.90;63.30
17080;DHT22;8655;57.106;-2.088;2022-11-20T02:23:03;16.00;63.40
17080;DHT22;8655;57.106;-2.088;2022-11-20T02:25:31;16.00;63.40
17080;DHT22;8655;57.106;-2.088;2022-11-20T02:27:57;15.90;63.30
17080;DHT22;8655;57.106;-2.088;2022-11-20T02:30:23;15.90;63.30
17080;DHT22;8655;57.106;-2.088;2022-11-20T02:32:49;15.90;63.30
17080;DHT22;8655;57.106;-2.088;2022-11-20T02:37:43;15.90;63.30
17080;DHT22;8655;57.106;-2.088;2022-11-20T02:40:10;15.90;63.30
17080;DHT22;8655;57.106;-2.088;2022-11-20T02:42:37;15.90;63.30
17080;DHT22;8655;57.106;-2.088;2022-11-20T02:45:04;15.90;63.30
17080;DHT22;8655;57.106;-2.088;2022-11-20T02:47:31;15.90;63.30
17080;DHT22;8655;57.106;-2.088;2022-11-20T02:49:57;15.90;63.30
17080;DHT22;8655;57.106;-2.088;2022-11-20T02:52:23;15.90;63.30
17080;DHT22;8655;57.106;-2.088;2022-11-20T02:57:31;15.90;63.30
17080;DHT22;8655;57.106;-2.088;2022-11-20T02:59:56;15.90;63.30
17080;DHT22;8655;57.106;-2.088;2022-11-20T03:02:22;15.90;63.20
17080;DHT22;8655;57.106;-2.088;2022-11-20T03:04:47;15.90;63.30
17080;DHT22;8655;57.106;-2.088;2022-11-20T03:07:13;15.90;63.20
17080;DHT22;8655;57.106;-2.088;2022-11-20T03:09:39;15.90;63.20
17080;DHT22;8655;57.106;-2.088;2022-11-20T03:12:05;15.90;63.20
17080;DHT22;8655;57.106;-2.088;2022-11-20T03:14:30;15.80;63.10
17080;DHT22;8655;57.106;-2.088;2022-11-20T03:16:56;15.90;63.20
17080;DHT22;8655;57.106;-2.088;2022-11-20T03:19:22;15.80;63.10
17080;DHT22;8655;57.106;-2.088;2022-11-20T03:21:48;15.80;63.10
17080;DHT22;8655;57.106;-2.088;2022-11-20T03:24:14;15.80;63.20
17080;DHT22;8655;57.106;-2.088;2022-11-20T03:26:40;15.80;63.10
17080;DHT22;8655;57.106;-2.088;2022-11-20T03:29:06;15.80;63.10
17080;DHT22;8655;57.106;-2.088;2022-11-20T03:31:34;15.80;63.10
17080;DHT22;8655;57.106;-2.088;2022-11-20T03:34:00;15.80;63.10
17080;DHT22;8655;57.106;-2.088;2022-11-20T03:36:27;15.80;63.20
17080;DHT22;8655;57.106;-2.088;2022-11-20T03:38:54;15.80;63.20
17080;DHT22;8655;57.106;-2.088;2022-11-20T03:41:28;15.80;63.10
17080;DHT22;8655;57.106;-2.088;2022-11-20T03:43:55;15.80;63.10
17080;DHT22;8655;57.106;-2.088;2022-11-20T03:46:21;15.80;63.10
17080;DHT22;8655;57.106;-2.088;2022-11-20T03:48:48;15.80;63.10
17080;DHT22;8655;57.106;-2.088;2022-11-20T03:53:42;15.80;63.10
17080;DHT22;8655;57.106;-2.088;2022-11-20T03:56:09;15.70;63.00
17080;DHT22;8655;57.106;-2.088;2022-11-20T03:58:36;15.80;63.10
17080;DHT22;8655;57.106;-2.088;2022-11-20T04:01:11;15.80;63.10
17080;DHT22;8655;57.106;-2.088;2022-11-20T04:03:38;15.80;63.10
17080;DHT22;8655;57.106;-2.088;2022-11-20T04:06:10;15.80;63.10
17080;DHT22;8655;57.106;-2.088;2022-11-20T04:08:36;15.80;63.10
17080;DHT22;8655;57.106;-2.088;2022-11-20T04:11:19;15.80;63.10
17080;DHT22;8655;57.106;-2.088;2022-11-20T04:13:48;15.70;63.00
17080;DHT22;8655;57.106;-2.088;2022-11-20T04:16:14;15.70;63.00
17080;DHT22;8655;57.106;-2.088;2022-11-20T04:18:39;15.80;63.10
17080;DHT22;8655;57.106;-2.088;2022-11-20T04:21:06;15.70;63.00
17080;DHT22;8655;57.106;-2.088;2022-11-20T04:23:32;15.70;63.00
17080;DHT22;8655;57.106;-2.088;2022-11-20T04:26:11;15.70;63.00
17080;DHT22;8655;57.106;-2.088;2022-11-20T04:28:38;15.70;63.00
17080;DHT22;8655;57.106;-2.088;2022-11-20T04:31:16;15.70;63.00
17080;DHT22;8655;57.106;-2.088;2022-11-20T04:33:42;15.70;63.00
17080;DHT22;8655;57.106;-2.088;2022-11-20T04:36:13;15.70;63.00
17080;DHT22;8655;57.106;-2.088;2022-11-20T04:38:40;15.70;63.00
17080;DHT22;8655;57.106;-2.088;2022-11-20T04:41:08;15.70;63.00
17080;DHT22;8655;57.106;-2.088;2022-11-20T04:43:36;15.70;63.00
17080;DHT22;8655;57.106;-2.088;2022-11-20T04:46:02;15.70;63.00
17080;DHT22;8655;57.106;-2.088;2022-11-20T04:48:29;15.70;62.90
17080;DHT22;8655;57.106;-2.088;2022-11-20T04:50:55;15.70;63.00
17080;DHT22;8655;57.106;-2.088;2022-11-20T04:53:21;15.70;63.00
17080;DHT22;8655;57.106;-2.088;2022-11-20T04:55:47;15.70;63.00
17080;DHT22;8655;57.106;-2.088;2022-11-20T04:58:13;15.70;62.90
17080;DHT22;8655;57.106;-2.088;2022-11-20T05:00:39;15.60;62.80
17080;DHT22;8655;57.106;-2.088;2022-11-20T05:03:06;15.70;62.90
17080;DHT22;8655;57.106;-2.088;2022-11-20T05:05:33;15.70;63.00
17080;DHT22;8655;57.106;-2.088;2022-11-20T05:07:59;15.70;63.00
17080;DHT22;8655;57.106;-2.088;2022-11-20T05:10:25;15.70;62.90
17080;DHT22;8655;57.106;-2.088;2022-11-20T05:12:51;15.60;62.80
17080;DHT22;8655;57.106;-2.088;2022-11-20T05:15:17;15.60;62.80
17080;DHT22;8655;57.106;-2.088;2022-11-20T05:17:52;15.60;62.80
17080;DHT22;8655;57.106;-2.088;2022-11-20T05:20:18;15.60;62.80
17080;DHT22;8655;57.106;-2.088;2022-11-20T05:22:45;15.60;62.80
17080;DHT22;8655;57.106;-2.088;2022-11-20T05:25:11;15.60;62.80
17080;DHT22;8655;57.106;-2.088;2022-11-20T05:27:37;15.60;62.80
17080;DHT22;8655;57.106;-2.088;2022-11-20T05:30:06;15.60;62.80
17080;DHT22;8655;57.106;-2.088;2022-11-20T05:32:32;15.60;62.80
17080;DHT22;8655;57.106;-2.088;2022-11-20T05:34:57;15.60;62.80
17080;DHT22;8655;57.106;-2.088;2022-11-20T05:37:23;15.60;62.80
17080;DHT22;8655;57.106;-2.088;2022-11-20T05:39:49;15.60;62.80
17080;DHT22;8655;57.106;-2.088;2022-11-20T05:42:14;15.60;62.80
17080;DHT22;8655;57.106;-2.088;2022-11-20T05:45:05;15.60;62.80
17080;DHT22;8655;57.106;-2.088;2022-11-20T05:47:33;15.60;62.80
17080;DHT22;8655;57.106;-2.088;2022-11-20T05:49:59;15.60;62.80
17080;DHT22;8655;57.106;-2.088;2022-11-20T05:52:27;15.60;62.80
17080;DHT22;8655;57.106;-2.088;2022-11-20T05:54:53;15.50;62.70
17080;DHT22;8655;57.106;-2.088;2022-11-20T05:57:19;15.60;62.80
17080;DHT22;8655;57.106;-2.088;2022-11-20T05:59:44;15.50;62.70
17080;DHT22;8655;57.106;-2.088;2022-11-20T06:02:10;15.50;62.60
17080;DHT22;8655;57.106;-2.088;2022-11-20T06:04:36;15.50;63.30
17080;DHT22;8655;57.106;-2.088;2022-11-20T06:07:01;15.60;62.70
17080;DHT22;8655;57.106;-2.088;2022-11-20T06:09:27;15.60;62.80
17080;DHT22;8655;57.106;-2.088;2022-11-20T06:11:53;15.50;62.70
17080;DHT22;8655;57.106;-2.088;2022-11-20T06:14:19;15.50;62.60
17080;DHT22;8655;57.106;-2.088;2022-11-20T06:16:44;15.50;62.60
17080;DHT22;8655;57.106;-2.088;2022-11-20T06:19:10;15.50;62.60
17080;DHT22;8655;57.106;-2.088;2022-11-20T06:21:36;15.50;62.60
17080;DHT22;8655;57.106;-2.088;2022-11-20T06:24:01;15.50;62.60
17080;DHT22;8655;57.106;-2.088;2022-11-20T06:26:27;15.50;62.60
17080;DHT22;8655;57.106;-2.088;2022-11-20T06:28:53;15.50;62.60
17080;DHT22;8655;57.106;-2.088;2022-11-20T06:31:23;15.50;63.30
17080;DHT22;8655;57.106;-2.088;2022-11-20T06:33:49;15.50;62.60
17080;DHT22;8655;57.106;-2.088;2022-11-20T06:36:17;15.50;62.60
17080;DHT22;8655;57.106;-2.088;2022-11-20T06:38:43;15.50;62.60
17080;DHT22;8655;57.106;-2.088;2022-11-20T06:41:12;15.50;62.60
17080;DHT22;8655;57.106;-2.088;2022-11-20T06:43:38;15.50;62.60
17080;DHT22;8655;57.106;-2.088;2022-11-20T06:46:04;15.50;62.60
17080;DHT22;8655;57.106;-2.088;2022-11-20T06:48:30;15.50;62.70
17080;DHT22;8655;57.106;-2.088;2022-11-20T06:50:56;15.50;62.70
17080;DHT22;8655;57.106;-2.088;2022-11-20T06:53:23;15.50;62.80
17080;DHT22;8655;57.106;-2.088;2022-11-20T06:55:50;15.50;62.80
17080;DHT22;8655;57.106;-2.088;2022-11-20T06:58:16;15.60;62.90
17080;DHT22;8655;57.106;-2.088;2022-11-20T07:00:42;15.50;62.80
17080;DHT22;8655;57.106;-2.088;2022-11-20T07:03:09;15.60;62.90
17080;DHT22;8655;57.106;-2.088;2022-11-20T07:05:35;15.60;62.90
17080;DHT22;8655;57.106;-2.088;2022-11-20T07:08:02;15.70;63.00
17080;DHT22;8655;57.106;-2.088;2022-11-20T07:10:28;15.70;63.00
17080;DHT22;8655;57.106;-2.088;2022-11-20T07:12:53;15.70;63.00
17080;DHT22;8655;57.106;-2.088;2022-11-20T07:15:21;15.70;63.00
17080;DHT22;8655;57.106;-2.088;2022-11-20T07:17:47;15.80;63.10
17080;DHT22;8655;57.106;-2.088;2022-11-20T07:20:14;15.90;63.20
17080;DHT22;8655;57.106;-2.088;2022-11-20T07:22:40;15.90;63.20
17080;DHT22;8655;57.106;-2.088;2022-11-20T07:25:06;15.90;63.20
17080;DHT22;8655;57.106;-2.088;2022-11-20T07:27:32;16.00;63.20
17080;DHT22;8655;57.106;-2.088;2022-11-20T07:29:58;16.00;63.30
17080;DHT22;8655;57.106;-2.088;2022-11-20T07:32:24;16.10;63.40
17080;DHT22;8655;57.106;-2.088;2022-11-20T07:34:50;16.10;63.30
17080;DHT22;8655;57.106;-2.088;2022-11-20T07:37:15;16.10;63.30
17080;DHT22;8655;57.106;-2.088;2022-11-20T07:39:41;16.20;63.40
17080;DHT22;8655;57.106;-2.088;2022-11-20T07:42:08;16.20;63.40
17080;DHT22;8655;57.106;-2.088;2022-11-20T07:44:37;16.30;64.20
17080;DHT22;8655;57.106;-2.088;2022-11-20T07:47:03;16.30;63.50
17080;DHT22;8655;57.106;-2.088;2022-11-20T07:49:29;16.30;63.50
17080;DHT22;8655;57.106;-2.088;2022-11-20T07:51:55;16.40;63.70
17080;DHT22;8655;57.106;-2.088;2022-11-20T07:54:21;16.40;63.60
17080;DHT22;8655;57.106;-2.088;2022-11-20T07:56:47;16.50;63.70
17080;DHT22;8655;57.106;-2.088;2022-11-20T07:59:14;16.50;63.70
17080;DHT22;8655;57.106;-2.088;2022-11-20T08:01:40;16.60;63.80
17080;DHT22;8655;57.106;-2.088;2022-11-20T08:04:06;16.60;63.80
17080;DHT22;8655;57.106;-2.088;2022-11-20T08:06:32;16.60;63.80
17080;DHT22;8655;57.106;-2.088;2022-11-20T08:08:57;16.70;64.00
17080;DHT22;8655;57.106;-2.088;2022-11-20T08:11:23;16.70;64.00
17080;DHT22;8655;57.106;-2.088;2022-11-20T08:14:08;16.70;63.90
17080;DHT22;8655;57.106;-2.088;2022-11-20T08:16:45;16.80;64.00
17080;DHT22;8655;57.106;-2.088;2022-11-20T08:19:12;16.80;64.00
17080;DHT22;8655;57.106;-2.088;2022-11-20T08:21:38;16.80;64.00
17080;DHT22;8655;57.106;-2.088;2022-11-20T08:24:05;16.90;64.10
17080;DHT22;8655;57.106;-2.088;2022-11-20T08:26:31;16.90;64.10
17080;DHT22;8655;57.106;-2.088;2022-11-20T08:28:57;17.00;64.20
17080;DHT22;8655;57.106;-2.088;2022-11-20T08:31:23;17.00;64.20
17080;DHT22;8655;57.106;-2.088;2022-11-20T08:33:49;17.00;64.20
17080;DHT22;8655;57.106;-2.088;2022-11-20T08:36:16;17.10;64.30
17080;DHT22;8655;57.106;-2.088;2022-11-20T08:38:46;17.10;64.30
17080;DHT22;8655;57.106;-2.088;2022-11-20T08:41:11;17.10;64.30
17080;DHT22;8655;57.106;-2.088;2022-11-20T08:43:50;17.20;64.40
17080;DHT22;8655;57.106;-2.088;2022-11-20T08:46:16;17.20;64.40
17080;DHT22;8655;57.106;-2.088;2022-11-20T08:48:43;17.20;64.40
17080;DHT22;8655;57.106;-2.088;2022-11-20T08:51:09;17.30;64.40
17080;DHT22;8655;57.106;-2.088;2022-11-20T08:53:35;17.30;64.40
17080;DHT22;8655;57.106;-2.088;2022-11-20T08:56:01;17.30;64.40
17080;DHT22;8655;57.106;-2.088;2022-11-20T08:58:27;17.30;64.40
17080;DHT22;8655;57.106;-2.088;2022-11-20T09:00:53;17.30;64.40
17080;DHT22;8655;57.106;-2.088;2022-11-20T09:03:19;17.40;64.50
17080;DHT22;8655;57.106;-2.088;2022-11-20T09:05:44;17.40;64.50
17080;DHT22;8655;57.106;-2.088;2022-11-20T09:08:10;17.40;64.50
17080;DHT22;8655;57.106;-2.088;2022-11-20T09:10:36;17.40;64.50
17080;DHT22;8655;57.106;-2.088;2022-11-20T09:13:05;17.40;64.50
17080;DHT22;8655;57.106;-2.088;2022-11-20T09:15:31;17.40;64.50
17080;DHT22;8655;57.106;-2.088;2022-11-20T09:18:03;17.40;64.50
17080;DHT22;8655;57.106;-2.088;2022-11-20T09:20:30;17.40;64.50
17080;DHT22;8655;57.106;-2.088;2022-11-20T09:22:57;17.40;64.50
17080;DHT22;8655;57.106;-2.088;2022-11-20T09:25:23;17.30;64.30
17080;DHT22;8655;57.106;-2.088;2022-11-20T09:27:55;17.30;64.30
17080;DHT22;8655;57.106;-2.088;2022-11-20T09:30:21;17.30;64.30
17080;DHT22;8655;57.106;-2.088;2022-11-20T09:32:47;17.30;64.30
17080;DHT22;8655;57.106;-2.088;2022-11-20T09:35:12;17.30;64.30
17080;DHT22;8655;57.106;-2.088;2022-11-20T09:37:39;17.30;64.30
17080;DHT22;8655;57.106;-2.088;2022-11-20T09:40:06;17.30;64.40
17080;DHT22;8655;57.106;-2.088;2022-11-20T09:42:42;17.30;64.30
17080;DHT22;8655;57.106;-2.088;2022-11-20T09:50:42;17.20;64.30
17080;DHT22;8655;57.106;-2.088;2022-11-20T09:55:56;17.20;64.20
17080;DHT22;8655;57.106;-2.088;2022-11-20T09:58:32;17.20;64.30
17080;DHT22;8655;57.106;-2.088;2022-11-20T10:06:17;17.10;64.20
17080;DHT22;8655;57.106;-2.088;2022-11-20T10:08:52;17.10;64.20
17080;DHT22;8655;57.106;-2.088;2022-11-20T10:11:37;17.10;64.20
17080;DHT22;8655;57.106;-2.088;2022-11-20T10:14:16;17.10;64.20
17080;DHT22;8655;57.106;-2.088;2022-11-20T10:22:42;17.00;64.10
17080;DHT22;8655;57.106;-2.088;2022-11-20T10:30:14;17.00;64.10
17080;DHT22;8655;57.106;-2.088;2022-11-20T10:32:48;16.90;64.00
17080;DHT22;8655;57.106;-2.088;2022-11-20T10:35:16;17.00;64.10
17080;DHT22;8655;57.106;-2.088;2022-11-20T10:37:48;16.90;64.00
17080;DHT22;8655;57.106;-2.088;2022-11-20T10:43:17;16.90;64.00
17080;DHT22;8655;57.106;-2.088;2022-11-20T10:45:57;16.90;64.00
17080;DHT22;8655;57.106;-2.088;2022-11-20T10:48:26;16.90;64.10
17080;DHT22;8655;57.106;-2.088;2022-11-20T10:56:46;16.80;63.90
17080;DHT22;8655;57.106;-2.088;2022-11-20T11:01:57;16.80;63.90
17080;DHT22;8655;57.106;-2.088;2022-11-20T11:04:50;16.80;63.90
17080;DHT22;8655;57.106;-2.088;2022-11-20T11:07:24;16.80;63.90
17080;DHT22;8655;57.106;-2.088;2022-11-20T11:09:53;16.80;63.90
17080;DHT22;8655;57.106;-2.088;2022-11-20T11:12:25;16.80;63.90
17080;DHT22;8655;57.106;-2.088;2022-11-20T11:14:54;16.80;63.90
17080;DHT22;8655;57.106;-2.088;2022-11-20T11:17:31;16.70;63.80
17080;DHT22;8655;57.106;-2.088;2022-11-20T11:20:17;16.80;64.60
17080;DHT22;8655;57.106;-2.088;2022-11-20T11:25:39;16.70;63.80
17080;DHT22;8655;57.106;-2.088;2022-11-20T11:28:20;16.70;63.80
17080;DHT22;8655;57.106;-2.088;2022-11-20T11:30:47;16.70;63.70
17080;DHT22;8655;57.106;-2.088;2022-11-20T11:33:24;16.70;63.80
17080;DHT22;8655;57.106;-2.088;2022-11-20T11:36:00;16.70;63.70
17080;DHT22;8655;57.106;-2.088;2022-11-20T11:38:39;16.70;63.70
17080;DHT22;8655;57.106;-2.088;2022-11-20T11:41:09;16.70;63.70
17080;DHT22;8655;57.106;-2.088;2022-11-20T11:43:38;16.70;63.80
17080;DHT22;8655;57.106;-2.088;2022-11-20T11:46:29;16.70;63.80
17080;DHT22;8655;57.106;-2.088;2022-11-20T11:49:15;16.60;63.70
17080;DHT22;8655;57.106;-2.088;2022-11-20T11:57:45;16.60;63.60
17080;DHT22;8655;57.106;-2.088;2022-11-20T12:00:17;16.60;63.60
17080;DHT22;8655;57.106;-2.088;2022-11-20T12:07:47;16.60;63.70
17080;DHT22;8655;57.106;-2.088;2022-11-20T12:10:21;16.60;63.70
17080;DHT22;8655;57.106;-2.088;2022-11-20T12:15:46;16.60;63.60
17080;DHT22;8655;57.106;-2.088;2022-11-20T12:18:20;16.60;63.60
17080;DHT22;8655;57.106;-2.088;2022-11-20T12:37:59;16.50;63.50
17080;DHT22;8655;57.106;-2.088;2022-11-20T12:43:27;16.50;63.50
17080;DHT22;8655;57.106;-2.088;2022-11-20T12:57:21;16.50;63.60
17080;DHT22;8655;57.106;-2.088;2022-11-20T13:03:04;16.50;63.60
17080;DHT22;8655;57.106;-2.088;2022-11-20T13:06:12;16.50;63.60
17080;DHT22;8655;57.106;-2.088;2022-11-20T13:08:40;16.50;63.60
17080;DHT22;8655;57.106;-2.088;2022-11-20T13:19:14;16.50;63.60
17080;DHT22;8655;57.106;-2.088;2022-11-20T13:21:42;16.50;63.60
17080;DHT22;8655;57.106;-2.088;2022-11-20T13:27:17;16.50;63.60
17080;DHT22;8655;57.106;-2.088;2022-11-20T13:29:45;16.50;63.60
17080;DHT22;8655;57.106;-2.088;2022-11-20T13:32:19;16.50;63.60
17080;DHT22;8655;57.106;-2.088;2022-11-20T13:34:56;16.50;63.60
17080;DHT22;8655;57.106;-2.088;2022-11-20T13:37:48;16.50;63.60
17080;DHT22;8655;57.106;-2.088;2022-11-20T13:40:24;16.50;63.60
17080;DHT22;8655;57.106;-2.088;2022-11-20T13:45:31;16.50;63.60
17080;DHT22;8655;57.106;-2.088;2022-11-20T13:48:19;16.50;63.60
17080;DHT22;8655;57.106;-2.088;2022-11-20T13:56:53;16.50;63.60
17080;DHT22;8655;57.106;-2.088;2022-11-20T14:01:51;16.40;63.50
17080;DHT22;8655;57.106;-2.088;2022-11-20T14:04:29;16.50;63.60
17080;DHT22;8655;57.106;-2.088;2022-11-20T14:06:56;16.40;63.50
17080;DHT22;8655;57.106;-2.088;2022-11-20T14:09:32;16.50;63.70
17080;DHT22;8655;57.106;-2.088;2022-11-20T14:11:59;16.40;63.50
17080;DHT22;8655;57.106;-2.088;2022-11-20T14:14:27;16.40;63.50
17080;DHT22;8655;57.106;-2.088;2022-11-20T14:17:20;16.50;63.70
17080;DHT22;8655;57.106;-2.088;2022-11-20T14:19:49;16.40;63.50
17080;DHT22;8655;57.106;-2.088;2022-11-20T14:24:44;16.40;63.70
17080;DHT22;8655;57.106;-2.088;2022-11-20T14:27:18;16.40;63.50
17080;DHT22;8655;57.106;-2.088;2022-11-20T14:29:46;16.40;63.60
17080;DHT22;8655;57.106;-2.088;2022-11-20T14:32:17;16.40;63.50
17080;DHT22;8655;57.106;-2.088;2022-11-20T14:34:45;16.40;63.50
17080;DHT22;8655;57.106;-2.088;2022-11-20T14:37:17;16.40;63.50
17080;DHT22;8655;57.106;-2.088;2022-11-20T14:39:53;16.40;63.50
17080;DHT22;8655;57.106;-2.088;2022-11-20T14:42:24;16.50;63.60
17080;DHT22;8655;57.106;-2.088;2022-11-20T14:44:52;16.40;63.60
17080;DHT22;8655;57.106;-2.088;2022-11-20T14:47:25;16.40;63.60
17080;DHT22;8655;57.106;-2.088;2022-11-20T14:49:53;16.40;63.60
17080;DHT22;8655;57.106;-2.088;2022-11-20T14:52:21;16.40;63.60
17080;DHT22;8655;57.106;-2.088;2022-11-20T14:54:50;16.40;63.60
17080;DHT22;8655;57.106;-2.088;2022-11-20T14:57:35;16.40;63.60
17080;DHT22;8655;57.106;-2.088;2022-11-20T15:02:41;16.40;63.60
17080;DHT22;8655;57.106;-2.088;2022-11-20T15:05:07;16.40;63.60
17080;DHT22;8655;57.106;-2.088;2022-11-20T15:07:39;16.40;63.50
17080;DHT22;8655;57.106;-2.088;2022-11-20T15:13:00;16.40;63.60
17080;DHT22;8655;57.106;-2.088;2022-11-20T15:15:36;16.40;63.60
17080;DHT22;8655;57.106;-2.088;2022-11-20T15:18:04;16.40;63.60
17080;DHT22;8655;57.106;-2.088;2022-11-20T15:20:32;16.40;63.60
17080;DHT22;8655;57.106;-2.088;2022-11-20T15:22:58;16.40;63.60
17080;DHT22;8655;57.106;-2.088;2022-11-20T15:25:24;16.40;63.70
17080;DHT22;8655;57.106;-2.088;2022-11-20T15:27:56;16.40;63.60
17080;DHT22;8655;57.106;-2.088;2022-11-20T15:30:22;16.40;63.60
17080;DHT22;8655;57.106;-2.088;2022-11-20T15:32:48;16.40;63.60
17080;DHT22;8655;57.106;-2.088;2022-11-20T15:35:15;16.40;63.60
17080;DHT22;8655;57.106;-2.088;2022-11-20T15:37:41;16.40;63.60
17080;DHT22;8655;57.106;-2.088;2022-11-20T15:40:08;16.40;63.60
17080;DHT22;8655;57.106;-2.088;2022-11-20T15:42:34;16.40;63.60
17080;DHT22;8655;57.106;-2.088;2022-11-20T15:45:00;16.40;63.60
17080;DHT22;8655;57.106;-2.088;2022-11-20T15:47:30;16.40;63.60
17080;DHT22;8655;57.106;-2.088;2022-11-20T15:49:56;16.40;63.60
17080;DHT22;8655;57.106;-2.088;2022-11-20T15:52:22;16.40;63.60
17080;DHT22;8655;57.106;-2.088;2022-11-20T15:54:48;16.40;64.30
17080;DHT22;8655;57.106;-2.088;2022-11-20T15:57:13;16.40;63.60
17080;DHT22;8655;57.106;-2.088;2022-11-20T15:59:39;16.40;63.60
17080;DHT22;8655;57.106;-2.088;2022-11-20T16:02:11;16.40;63.60
17080;DHT22;8655;57.106;-2.088;2022-11-20T16:04:37;16.40;63.60
17080;DHT22;8655;57.106;-2.088;2022-11-20T16:07:03;16.40;63.60
17080;DHT22;8655;57.106;-2.088;2022-11-20T16:09:29;16.30;63.40
17080;DHT22;8655;57.106;-2.088;2022-11-20T16:11:55;16.30;63.50
17080;DHT22;8655;57.106;-2.088;2022-11-20T16:14:20;16.30;63.50
17080;DHT22;8655;57.106;-2.088;2022-11-20T16:17:05;16.30;63.50
17080;DHT22;8655;57.106;-2.088;2022-11-20T16:19:30;16.30;63.50
17080;DHT22;8655;57.106;-2.088;2022-11-20T16:21:59;16.30;63.50
17080;DHT22;8655;57.106;-2.088;2022-11-20T16:24:27;16.30;63.50
17080;DHT22;8655;57.106;-2.088;2022-11-20T16:26:54;16.30;63.50
17080;DHT22;8655;57.106;-2.088;2022-11-20T16:29:20;16.30;63.50
17080;DHT22;8655;57.106;-2.088;2022-11-20T16:31:45;16.30;63.50
17080;DHT22;8655;57.106;-2.088;2022-11-20T16:34:11;16.30;63.50
17080;DHT22;8655;57.106;-2.088;2022-11-20T16:36:39;16.30;63.50
17080;DHT22;8655;57.106;-2.088;2022-11-20T16:39:05;16.30;63.50
17080;DHT22;8655;57.106;-2.088;2022-11-20T16:41:32;16.30;63.50
17080;DHT22;8655;57.106;-2.088;2022-11-20T16:44:01;16.30;63.40
17080;DHT22;8655;57.106;-2.088;2022-11-20T16:46:31;16.30;63.40
17080;DHT22;8655;57.106;-2.088;2022-11-20T16:49:11;16.30;63.50
17080;DHT22;8655;57.106;-2.088;2022-11-20T16:51:37;16.30;63.50
17080;DHT22;8655;57.106;-2.088;2022-11-20T16:54:07;16.30;63.50
17080;DHT22;8655;57.106;-2.088;2022-11-20T16:56:33;16.30;63.50
17080;DHT22;8655;57.106;-2.088;2022-11-20T16:59:00;16.30;63.40
17080;DHT22;8655;57.106;-2.088;2022-11-20T17:01:28;16.30;63.40
17080;DHT22;8655;57.106;-2.088;2022-11-20T17:04:02;16.30;63.40
17080;DHT22;8655;57.106;-2.088;2022-11-20T17:06:30;16.30;63.40
17080;DHT22;8655;57.106;-2.088;2022-11-20T17:08:57;16.30;63.40
17080;DHT22;8655;57.106;-2.088;2022-11-20T17:11:23;16.30;63.40
17080;DHT22;8655;57.106;-2.088;2022-11-20T17:13:49;16.30;63.40
17080;DHT22;8655;57.106;-2.088;2022-11-20T17:16:20;16.30;63.40
17080;DHT22;8655;57.106;-2.088;2022-11-20T17:18:46;16.20;63.30
17080;DHT22;8655;57.106;-2.088;2022-11-20T17:21:14;16.20;63.30
17080;DHT22;8655;57.106;-2.088;2022-11-20T17:23:41;16.20;63.30
17080;DHT22;8655;57.106;-2.088;2022-11-20T17:26:09;16.20;63.30
17080;DHT22;8655;57.106;-2.088;2022-11-20T17:28:37;16.30;63.50
17080;DHT22;8655;57.106;-2.088;2022-11-20T17:31:14;16.20;63.30
17080;DHT22;8655;57.106;-2.088;2022-11-20T17:33:42;16.30;63.40
17080;DHT22;8655;57.106;-2.088;2022-11-20T17:36:09;16.20;63.30
17080;DHT22;8655;57.106;-2.088;2022-11-20T17:38:35;16.20;63.30
17080;DHT22;8655;57.106;-2.088;2022-11-20T17:43:28;16.20;63.30
17080;DHT22;8655;57.106;-2.088;2022-11-20T17:45:54;16.20;63.30
17080;DHT22;8655;57.106;-2.088;2022-11-20T17:48:21;16.20;63.30